Terminal Aerodrome Forecast
Issued by NWS

Current Version | Previous Version | Text Only | Print | Product List | Glossary On
Versions: 1 2 3 4 5 6 7 8 9 10 11 12 13 14 15
000
FTUS41 KLWX 242300 RRA
TAFMTN
TAF
KMTN 242344Z 2500/2524 34007KT P6SM BKN110
     FM250100 34011KT P6SM SCT110
     FM251600 29004KT P6SM SKC
     FM252100 21004KT P6SM FEW060
      AMD NOT SKED 2502/2512=

USA.gov is the U.S. government's official web portal to all federal, state and local government web resources and services.